Time;durP1;ratioP1;P1;durP2;ratioP2;P2;SDS_P1;SDS_P2;PMS_P1;PMS_P2;Temp;Humidity;BMP_temperature;BMP_pressure;BME280_temperature;BME280_humidity;BME280_pressure;Samples;Min_cycle;Max_cycle;Signal;HPM_P1;HPM_P2
2022/07/07 00:00:21;;;;;;;3.4;6.2;;;;;;;14.1;100;98890;;;;
2022/07/07 00:11:21;;;;;;;3.3;6.2;;;;;;;13.9;100;98890;;;;
2022/07/07 00:21:21;;;;;;;3.3;6.2;;;;;;;13.4;100;98880;;;;
2022/07/07 00:31:21;;;;;;;3.3;6.2;;;;;;;13.2;100;98870;;;;
2022/07/07 00:41:21;;;;;;;3.9;8.8;;;;;;;12.9;100;98860;;;;
2022/07/07 00:52:21;;;;;;;3.9;8.8;;;;;;;12.7;100;98860;;;;
2022/07/07 01:03:21;;;;;;;3.9;8.8;;;;;;;12.5;100;98860;;;;
2022/07/07 01:14:21;;;;;;;3.2;5.4;;;;;;;12.3;100;98860;;;;
2022/07/07 01:24:21;;;;;;;3.2;5.4;;;;;;;12.1;100;98860;;;;
2022/07/07 01:35:21;;;;;;;3.2;5.4;;;;;;;11.9;100;98860;;;;
2022/07/07 01:45:21;;;;;;;3.1;5.2;;;;;;;11.9;100;98860;;;;
2022/07/07 01:56:21;;;;;;;3.1;5.2;;;;;;;12;100;98860;;;;
2022/07/07 02:07:21;;;;;;;3.2;5.6;;;;;;;11.9;100;98850;;;;
2022/07/07 02:17:21;;;;;;;3.2;5.6;;;;;;;11.9;100;98850;;;;
2022/07/07 02:27:21;;;;;;;3.2;5.6;;;;;;;12;100;98850;;;;
2022/07/07 02:37:21;;;;;;;3.1;7.1;;;;;;;12;100;98850;;;;
2022/07/07 02:48:21;;;;;;;3.1;7.1;;;;;;;12.2;100;98840;;;;
2022/07/07 02:59:21;;;;;;;3.1;7.1;;;;;;;12.4;100;98830;;;;
2022/07/07 03:09:21;;;;;;;3.4;8.1;;;;;;;12.5;100;98820;;;;
2022/07/07 03:19:21;;;;;;;3.4;8.1;;;;;;;12.7;100;98830;;;;
2022/07/07 03:30:21;;;;;;;3.4;8.1;;;;;;;12.8;100;98840;;;;
2022/07/07 03:40:22;;;;;;;2.9;5;;;;;;;13;100;98860;;;;
2022/07/07 03:51:21;;;;;;;2.9;5;;;;;;;13.2;100;98850;;;;
2022/07/07 04:02:21;;;;;;;2.9;5;;;;;;;13.4;100;98840;;;;
2022/07/07 04:13:21;;;;;;;3.3;6;;;;;;;13.7;100;98830;;;;
2022/07/07 04:23:21;;;;;;;3.3;6;;;;;;;14.1;100;98830;;;;
2022/07/07 04:34:22;;;;;;;3.3;6;;;;;;;14.3;100;98830;;;;
2022/07/07 04:45:21;;;;;;;3.1;5.5;;;;;;;15;100;98830;;;;
2022/07/07 04:56:21;;;;;;;3.1;5.5;;;;;;;15.2;100;98830;;;;
2022/07/07 05:07:21;;;;;;;3.2;8.2;;;;;;;15.8;100;98830;;;;
2022/07/07 05:18:21;;;;;;;3.2;8.2;;;;;;;16;100;98840;;;;
2022/07/07 05:28:21;;;;;;;3.2;8.2;;;;;;;16.5;100;98840;;;;
2022/07/07 05:39:24;;;;;;;3.2;5.6;;;;;;;16.6;100;98830;;;;
2022/07/07 05:50:21;;;;;;;3.2;5.6;;;;;;;16.9;100;98830;;;;
2022/07/07 06:00:23;;;;;;;3.2;5.6;;;;;;;17.1;100;98830;;;;
2022/07/07 06:11:21;;;;;;;4.5;9.1;;;;;;;17.5;100;98830;;;;
2022/07/07 06:21:21;;;;;;;4.5;9.1;;;;;;;17.7;100;98820;;;;
2022/07/07 06:31:21;;;;;;;4.5;9.1;;;;;;;18;100;98810;;;;
2022/07/07 06:42:21;;;;;;;6.7;10.6;;;;;;;18.4;100;98810;;;;
2022/07/07 06:53:21;;;;;;;6.7;10.6;;;;;;;18.7;100;98810;;;;
2022/07/07 07:04:21;;;;;;;6.7;10.6;;;;;;;18.8;100;98800;;;;
2022/07/07 07:14:21;;;;;;;4.2;7.1;;;;;;;19.2;100;98800;;;;
2022/07/07 07:25:21;;;;;;;4.2;7.1;;;;;;;19.9;100;98800;;;;
2022/07/07 07:36:21;;;;;;;4.2;7.1;;;;;;;20.3;100;98790;;;;
2022/07/07 07:46:21;;;;;;;3.7;8.5;;;;;;;20.5;100;98780;;;;
2022/07/07 07:56:21;;;;;;;3.7;8.5;;;;;;;20.6;100;98790;;;;
2022/07/07 08:06:21;;;;;;;3.7;8.5;;;;;;;20.6;100;98780;;;;
2022/07/07 08:17:21;;;;;;;3.2;6.4;;;;;;;21.3;100;98790;;;;
2022/07/07 08:28:21;;;;;;;3.2;6.4;;;;;;;21.8;100;98790;;;;
2022/07/07 08:39:21;;;;;;;2.9;5.5;;;;;;;21.7;100;98780;;;;
2022/07/07 08:50:21;;;;;;;2.9;5.5;;;;;;;22.7;100;98770;;;;
2022/07/07 09:00:22;;;;;;;2.9;5.5;;;;;;;23;100;98770;;;;
2022/07/07 09:11:21;;;;;;;2.3;6.2;;;;;;;23.3;97.8;98770;;;;
2022/07/07 09:21:21;;;;;;;2.3;6.2;;;;;;;23.7;91.2;98770;;;;
2022/07/07 09:31:21;;;;;;;2.3;6.2;;;;;;;23.2;92.5;98760;;;;
2022/07/07 09:42:21;;;;;;;2.3;5;;;;;;;23.1;93.8;98760;;;;
2022/07/07 09:52:21;;;;;;;2.3;5;;;;;;;23.3;93.8;98760;;;;
2022/07/07 10:03:23;;;;;;;2.3;5;;;;;;;22.7;93.7;98750;;;;
2022/07/07 10:13:21;;;;;;;2.6;5.1;;;;;;;23.2;94.1;98740;;;;
2022/07/07 10:24:21;;;;;;;2.6;5.1;;;;;;;23.8;88.5;98750;;;;
2022/07/07 10:35:23;;;;;;;2.6;5.1;;;;;;;24;90;98730;;;;
2022/07/07 10:46:21;;;;;;;2;3.8;;;;;;;24;95.5;98730;;;;
2022/07/07 10:56:21;;;;;;;2;3.8;;;;;;;23.4;92.5;98720;;;;
2022/07/07 11:06:21;;;;;;;2;3.8;;;;;;;24.7;98.6;98710;;;;
2022/07/07 11:16:22;;;;;;;1.9;6.5;;;;;;;25;90.3;98710;;;;
2022/07/07 11:27:22;;;;;;;1.9;6.5;;;;;;;25.2;86;98700;;;;
2022/07/07 11:37:21;;;;;;;2.3;4.9;;;;;;;24.5;85.9;98690;;;;
2022/07/07 11:47:21;;;;;;;2.3;4.9;;;;;;;24.7;87;98700;;;;
2022/07/07 11:58:22;;;;;;;2.3;4.9;;;;;;;24.2;89.5;98690;;;;
2022/07/07 12:08:21;;;;;;;2.3;5.2;;;;;;;24.4;92.5;98680;;;;
2022/07/07 12:18:24;;;;;;;2.3;5.2;;;;;;;24.3;86;98680;;;;
2022/07/07 12:29:21;;;;;;;2.3;5.2;;;;;;;24.3;89.4;98660;;;;
2022/07/07 12:39:21;;;;;;;1.9;6.4;;;;;;;25;87.3;98660;;;;
2022/07/07 12:49:22;;;;;;;1.9;6.4;;;;;;;25.2;82.1;98650;;;;
2022/07/07 13:00:21;;;;;;;1.9;6.4;;;;;;;25.7;82.2;98640;;;;
2022/07/07 13:10:23;;;;;;;2.6;6.9;;;;;;;26;77.1;98640;;;;
2022/07/07 13:21:22;;;;;;;2.6;6.9;;;;;;;25.7;75.9;98630;;;;
2022/07/07 13:31:21;;;;;;;2.6;6.9;;;;;;;26.1;78.8;98630;;;;
2022/07/07 13:42:21;;;;;;;1.8;4.7;;;;;;;25.3;73.6;98620;;;;
2022/07/07 13:52:21;;;;;;;1.8;4.7;;;;;;;25.4;69.7;98610;;;;
2022/07/07 14:02:24;;;;;;;1.8;4.7;;;;;;;24.6;72.4;98610;;;;
2022/07/07 14:13:21;;;;;;;1.8;3.8;;;;;;;24.4;72.8;98600;;;;
2022/07/07 14:23:21;;;;;;;1.8;3.8;;;;;;;24.3;75.3;98600;;;;
2022/07/07 14:33:22;;;;;;;1.8;3.8;;;;;;;23.8;74.9;98600;;;;
2022/07/07 14:44:22;;;;;;;2;3.7;;;;;;;24.3;75.7;98610;;;;
2022/07/07 14:54:21;;;;;;;2;3.7;;;;;;;24;79.6;98610;;;;
2022/07/07 15:05:22;;;;;;;2;3.7;;;;;;;24.4;71.7;98610;;;;
2022/07/07 15:16:21;;;;;;;1.8;3.9;;;;;;;27;66.8;98610;;;;
2022/07/07 15:27:22;;;;;;;1.8;3.9;;;;;;;25.4;68.9;98610;;;;
2022/07/07 15:38:22;;;;;;;2;3.9;;;;;;;25.1;75.3;98610;;;;
2022/07/07 15:48:21;;;;;;;2;3.9;;;;;;;24.4;82.3;98610;;;;
2022/07/07 15:59:23;;;;;;;2;3.9;;;;;;;24.5;84.6;98610;;;;
2022/07/07 16:10:22;;;;;;;2.2;4.5;;;;;;;23.4;87.2;98620;;;;
2022/07/07 16:21:22;;;;;;;2.2;4.5;;;;;;;22.8;89.6;98620;;;;
2022/07/07 16:31:22;;;;;;;2.2;4.5;;;;;;;22.3;91.9;98640;;;;
2022/07/07 16:41:22;;;;;;;2.4;5.6;;;;;;;21;99.6;98650;;;;
2022/07/07 16:52:22;;;;;;;2.4;5.6;;;;;;;20.1;100;98660;;;;
2022/07/07 17:02:21;;;;;;;2.4;5.6;;;;;;;19.7;100;98660;;;;
2022/07/07 17:13:22;;;;;;;2.8;6;;;;;;;18.9;100;98660;;;;
2022/07/07 17:23:21;;;;;;;2.8;6;;;;;;;18.7;100;98660;;;;
2022/07/07 17:33:22;;;;;;;2.8;6;;;;;;;18.5;100;98650;;;;
2022/07/07 17:43:21;;;;;;;2.1;5.6;;;;;;;18.2;100;98640;;;;
2022/07/07 17:54:22;;;;;;;2.1;5.6;;;;;;;18.4;100;98640;;;;
2022/07/07 18:05:22;;;;;;;2.1;5.6;;;;;;;18.2;100;98640;;;;
2022/07/07 18:16:22;;;;;;;5.1;9.7;;;;;;;18.1;100;98640;;;;
2022/07/07 18:26:22;;;;;;;5.1;9.7;;;;;;;17.9;100;98640;;;;
2022/07/07 18:37:22;;;;;;;5.1;9.7;;;;;;;17.9;100;98650;;;;
2022/07/07 18:47:22;;;;;;;2.8;5.4;;;;;;;17.8;100;98650;;;;
2022/07/07 18:57:22;;;;;;;2.8;5.4;;;;;;;17.6;100;98670;;;;
2022/07/07 19:08:22;;;;;;;11.2;14.5;;;;;;;17.7;100;98680;;;;
2022/07/07 19:19:22;;;;;;;11.2;14.5;;;;;;;17.4;100;98690;;;;
2022/07/07 19:29:22;;;;;;;11.2;14.5;;;;;;;17.5;100;98710;;;;
2022/07/07 19:40:22;;;;;;;18.8;24.5;;;;;;;17.3;100;98730;;;;
2022/07/07 19:50:22;;;;;;;18.8;24.5;;;;;;;17.2;100;98730;;;;
2022/07/07 20:01:22;;;;;;;18.8;24.5;;;;;;;17.2;100;98730;;;;
2022/07/07 20:11:24;;;;;;;7.4;11.8;;;;;;;17;100;98750;;;;
2022/07/07 20:22:22;;;;;;;7.4;11.8;;;;;;;16.9;100;98750;;;;
2022/07/07 20:33:22;;;;;;;7.4;11.8;;;;;;;16.8;100;98750;;;;
2022/07/07 20:44:22;;;;;;;3.7;6.2;;;;;;;16.6;100;98740;;;;
2022/07/07 20:54:22;;;;;;;3.7;6.2;;;;;;;16.4;100;98740;;;;
2022/07/07 21:05:22;;;;;;;3.7;6.2;;;;;;;16.5;100;98750;;;;
2022/07/07 21:15:22;;;;;;;4.1;5.8;;;;;;;16.4;100;98760;;;;
2022/07/07 21:25:22;;;;;;;4.1;5.8;;;;;;;16.4;100;98770;;;;
2022/07/07 21:35:22;;;;;;;4.1;5.8;;;;;;;16.4;100;98770;;;;
2022/07/07 21:45:22;;;;;;;2.9;5;;;;;;;16.4;100;98780;;;;
2022/07/07 21:56:22;;;;;;;2.9;5;;;;;;;16.2;100;98780;;;;
2022/07/07 22:07:22;;;;;;;3.3;5.5;;;;;;;16.3;100;98780;;;;
2022/07/07 22:17:22;;;;;;;3.3;5.5;;;;;;;16.4;100;98790;;;;
2022/07/07 22:27:22;;;;;;;3.3;5.5;;;;;;;16.5;100;98790;;;;
2022/07/07 22:38:22;;;;;;;2.8;4.4;;;;;;;16.5;100;98800;;;;
2022/07/07 22:49:22;;;;;;;2.8;4.4;;;;;;;16.5;100;98800;;;;
2022/07/07 22:59:22;;;;;;;2.8;4.4;;;;;;;16.4;100;98800;;;;
2022/07/07 23:10:22;;;;;;;2.8;4.2;;;;;;;16.4;100;98800;;;;
2022/07/07 23:20:22;;;;;;;2.8;4.2;;;;;;;16.2;100;98800;;;;
2022/07/07 23:31:22;;;;;;;2.8;4.2;;;;;;;15.9;100;98800;;;;
2022/07/07 23:41:22;;;;;;;2.7;3.9;;;;;;;15.8;100;98790;;;;
2022/07/07 23:51:22;;;;;;;2.7;3.9;;;;;;;15.9;100;98790;;;;
